Time;durP1;ratioP1;P1;durP2;ratioP2;P2;SDS_P1;SDS_P2;PMS_P1;PMS_P2;Temp;Humidity;BMP_temperature;BMP_pressure;BME280_temperature;BME280_humidity;BME280_pressure;Samples;Min_cycle;Max_cycle;Signal;HPM_P1;HPM_P2
2021/08/16 00:01:11;;;;;;;13.03;9.73;;;;;;;17.18;100.00;97551.28;5056820;28;20529;-67
2021/08/16 00:03:40;;;;;;;9.93;9.23;;;;;;;17.26;100.00;97560.06;5052904;28;20724;-69
2021/08/16 00:06:09;;;;;;;10.87;9.70;;;;;;;17.21;100.00;97558.03;5049875;28;20219;-67
2021/08/16 00:08:37;;;;;;;10.93;9.90;;;;;;;17.19;100.00;97555.59;5056536;28;20207;-68
2021/08/16 00:11:04;;;;;;;10.63;9.57;;;;;;;17.19;100.00;97557.44;5052469;28;20226;-68
2021/08/16 00:13:33;;;;;;;11.53;10.37;;;;;;;17.14;100.00;97557.25;5060196;28;20207;-68
2021/08/16 00:16:01;;;;;;;10.67;9.73;;;;;;;17.13;100.00;97551.09;5052848;28;20207;-68
2021/08/16 00:18:30;;;;;;;9.63;8.70;;;;;;;17.12;100.00;97538.75;5050133;28;20286;-68
2021/08/16 00:20:59;;;;;;;11.10;10.03;;;;;;;17.06;100.00;97532.41;5048779;28;20246;-68
2021/08/16 00:23:27;;;;;;;10.37;9.57;;;;;;;17.06;100.00;97524.38;5051907;28;20758;-68
2021/08/16 00:25:55;;;;;;;10.47;9.53;;;;;;;17.00;100.00;97535.13;5048271;28;20230;-67
2021/08/16 00:28:23;;;;;;;12.07;10.17;;;;;;;16.96;100.00;97532.03;5049870;28;20210;-67
2021/08/16 00:30:51;;;;;;;9.50;8.63;;;;;;;16.93;100.00;97519.91;5051742;28;20226;-68
2021/08/16 00:33:19;;;;;;;10.57;9.47;;;;;;;16.92;100.00;97522.81;5050383;28;20249;-67
2021/08/16 00:35:47;;;;;;;11.33;9.57;;;;;;;16.97;100.00;97516.78;5052261;28;20216;-68
2021/08/16 00:38:16;;;;;;;9.50;8.80;;;;;;;16.90;100.00;97519.53;5052279;28;20575;-67
2021/08/16 00:40:44;;;;;;;10.47;9.47;;;;;;;16.90;100.00;97524.88;5054394;28;20226;-68
2021/08/16 00:43:12;;;;;;;10.37;9.23;;;;;;;16.85;100.00;97520.16;5054108;28;20227;-67
2021/08/16 00:45:40;;;;;;;10.73;9.80;;;;;;;16.82;100.00;97519.78;5052310;28;20203;-67
2021/08/16 00:48:09;;;;;;;10.03;9.17;;;;;;;16.76;100.00;97519.59;5047154;28;20204;-67
2021/08/16 00:50:37;;;;;;;13.10;9.87;;;;;;;16.78;100.00;97522.88;5055370;28;20230;-68
2021/08/16 00:53:06;;;;;;;11.17;10.07;;;;;;;16.72;100.00;97517.59;5051743;28;20203;-68
2021/08/16 00:55:35;;;;;;;12.80;8.87;;;;;;;16.68;100.00;97508.34;5049928;28;20694;-67
2021/08/16 00:58:03;;;;;;;10.83;9.70;;;;;;;16.72;100.00;97499.66;5049709;28;20450;-68
2021/08/16 01:00:32;;;;;;;9.87;9.07;;;;;;;16.73;100.00;97503.19;5047559;28;20231;-68
2021/08/16 01:03:00;;;;;;;11.53;10.37;;;;;;;16.79;100.00;97503.13;5048287;28;20674;-68
2021/08/16 01:05:28;;;;;;;11.67;9.40;;;;;;;16.76;100.00;97500.06;5051693;28;20227;-67
2021/08/16 01:07:56;;;;;;;10.67;9.67;;;;;;;16.76;100.00;97498.19;5051163;28;20216;-67
2021/08/16 01:10:29;;;;;;;10.90;9.80;;;;;;;16.68;100.00;97495.78;5057358;28;20642;-67
2021/08/16 01:13:00;;;;;;;11.10;10.30;;;;;;;16.62;100.00;97496.66;5047542;28;20902;-67
2021/08/16 01:15:29;;;;;;;11.07;9.97;;;;;;;16.65;100.00;97496.22;5054892;28;20210;-67
2021/08/16 01:17:57;;;;;;;14.20;10.23;;;;;;;16.55;100.00;97491.34;5047629;28;20210;-66
2021/08/16 01:20:25;;;;;;;12.13;10.93;;;;;;;16.64;100.00;97491.91;5049948;28;20246;-68
2021/08/16 01:22:53;;;;;;;10.63;9.67;;;;;;;16.56;100.00;97492.16;5047402;28;20234;-68
2021/08/16 01:25:21;;;;;;;12.13;11.13;;;;;;;16.59;100.00;97492.53;5046833;28;20235;-67
2021/08/16 01:27:51;;;;;;;12.20;11.13;;;;;;;16.56;100.00;97498.31;5051001;28;20878;-67
2021/08/16 01:30:19;;;;;;;11.60;10.60;;;;;;;16.69;100.00;97499.31;5048930;28;20711;-67
2021/08/16 01:32:47;;;;;;;12.23;11.17;;;;;;;16.70;100.00;97492.91;5053743;28;20640;-68
2021/08/16 01:35:15;;;;;;;12.30;11.03;;;;;;;16.67;100.00;97491.47;5053995;28;20216;-67
2021/08/16 01:37:46;;;;;;;12.30;10.93;;;;;;;16.61;100.00;97492.34;5051912;28;20201;-67
2021/08/16 01:40:15;;;;;;;11.60;10.50;;;;;;;16.53;100.00;97497.94;5046956;28;20219;-69
2021/08/16 01:42:43;;;;;;;12.20;11.00;;;;;;;16.47;100.00;97495.06;5046729;28;20686;-69
2021/08/16 01:45:13;;;;;;;11.20;10.20;;;;;;;16.46;100.00;97497.97;5045892;28;20734;-68
2021/08/16 01:47:41;;;;;;;10.90;9.90;;;;;;;16.40;100.00;97504.19;5051273;28;20206;-67
2021/08/16 01:50:09;;;;;;;12.43;10.03;;;;;;;16.41;100.00;97508.50;5052362;28;20242;-68
2021/08/16 01:52:37;;;;;;;10.80;9.90;;;;;;;16.45;100.00;97507.84;5050652;28;20211;-69
2021/08/16 01:55:07;;;;;;;10.93;9.93;;;;;;;16.38;100.00;97507.06;5050897;28;20203;-68
2021/08/16 01:57:35;;;;;;;11.43;10.10;;;;;;;16.37;100.00;97509.97;5049793;28;20208;-67
2021/08/16 02:00:04;;;;;;;11.47;10.43;;;;;;;16.31;100.00;97504.44;5053516;28;20218;-67
2021/08/16 02:02:33;;;;;;;11.57;10.47;;;;;;;16.31;100.00;97496.41;5049661;28;20218;-67
2021/08/16 02:05:02;;;;;;;12.20;11.00;;;;;;;16.25;100.00;97499.91;5054660;28;20441;-67
2021/08/16 02:07:30;;;;;;;10.13;9.33;;;;;;;16.24;100.00;97495.59;5046289;28;20708;-68
2021/08/16 02:09:57;;;;;;;11.73;10.53;;;;;;;16.27;100.00;97489.03;5051216;28;20230;-67
2021/08/16 02:12:25;;;;;;;11.43;9.57;;;;;;;16.20;100.00;97489.88;5053383;28;20214;-67
2021/08/16 02:14:53;;;;;;;9.53;8.73;;;;;;;16.18;100.00;97491.94;5053206;28;20627;-67
2021/08/16 02:17:21;;;;;;;10.40;9.40;;;;;;;16.14;100.00;97490.72;5050319;28;20281;-66
2021/08/16 02:19:52;;;;;;;11.07;10.17;;;;;;;16.12;100.00;97492.81;5044797;28;20223;-68
2021/08/16 02:22:20;;;;;;;10.93;10.13;;;;;;;16.08;100.00;97486.22;5044490;28;20207;-66
2021/08/16 02:24:48;;;;;;;10.30;9.50;;;;;;;16.10;100.00;97492.19;5050134;28;20296;-68
2021/08/16 02:27:16;;;;;;;11.50;10.67;;;;;;;16.08;100.00;97472.03;5049579;28;20203;-67
2021/08/16 02:29:44;;;;;;;10.80;9.90;;;;;;;16.06;100.00;97469.56;5045474;28;20233;-67
2021/08/16 02:32:12;;;;;;;15.47;10.73;;;;;;;16.02;100.00;97471.88;5049359;28;20203;-67
2021/08/16 02:34:40;;;;;;;12.50;11.30;;;;;;;16.00;100.00;97467.75;5051495;28;20632;-66
2021/08/16 02:37:09;;;;;;;11.80;10.70;;;;;;;16.00;100.00;97465.91;5043187;28;20207;-67
2021/08/16 02:39:37;;;;;;;11.53;10.63;;;;;;;15.95;100.00;97471.06;5045051;28;20226;-69
2021/08/16 02:42:06;;;;;;;12.17;10.93;;;;;;;15.93;100.00;97470.47;5055172;28;20203;-68
2021/08/16 02:44:34;;;;;;;11.53;10.43;;;;;;;15.94;100.00;97476.63;5060277;28;20265;-68
2021/08/16 02:47:02;;;;;;;11.87;10.53;;;;;;;15.95;100.00;97475.59;5045904;28;20234;-68
2021/08/16 02:49:30;;;;;;;11.53;10.63;;;;;;;15.90;100.00;97482.38;5048185;28;20546;-68
2021/08/16 02:51:58;;;;;;;11.77;10.67;;;;;;;15.93;100.00;97489.16;5048538;28;20203;-67
2021/08/16 02:54:27;;;;;;;11.70;10.23;;;;;;;15.89;100.00;97480.75;5051861;28;20289;-66
2021/08/16 02:56:55;;;;;;;12.43;11.23;;;;;;;15.84;100.00;97477.84;5046836;28;20203;-67
2021/08/16 02:59:23;;;;;;;12.33;11.20;;;;;;;15.86;100.00;97483.81;5049734;28;20224;-67
2021/08/16 03:01:51;;;;;;;12.07;10.97;;;;;;;15.84;100.00;97485.03;5043132;28;20208;-67
2021/08/16 03:04:19;;;;;;;13.17;11.97;;;;;;;15.84;100.00;97490.38;5036748;28;20786;-67
2021/08/16 03:06:47;;;;;;;11.43;10.33;;;;;;;15.78;100.00;97494.72;5041785;28;20222;-68
2021/08/16 03:09:15;;;;;;;12.07;10.80;;;;;;;15.77;100.00;97499.25;5047923;28;20231;-67
2021/08/16 03:11:44;;;;;;;11.97;10.73;;;;;;;15.76;100.00;97489.59;5048784;28;20209;-68
2021/08/16 03:14:12;;;;;;;13.90;11.87;;;;;;;15.75;100.00;97495.97;5048054;28;20235;-68
2021/08/16 03:16:40;;;;;;;11.17;10.27;;;;;;;15.76;100.00;97488.78;5051697;28;20622;-68
2021/08/16 03:19:08;;;;;;;12.13;10.80;;;;;;;15.76;100.00;97494.13;5051925;28;20673;-68
2021/08/16 03:21:36;;;;;;;12.27;11.10;;;;;;;15.75;100.00;97497.81;5047849;28;20210;-67
2021/08/16 03:24:04;;;;;;;12.00;10.77;;;;;;;15.77;100.00;97490.41;5049067;28;20223;-66
2021/08/16 03:26:33;;;;;;;11.97;10.97;;;;;;;15.80;100.00;97484.66;5051147;28;20793;-69
2021/08/16 03:29:02;;;;;;;12.53;10.40;;;;;;;15.80;100.00;97473.97;5046491;28;20246;-68
2021/08/16 03:31:30;;;;;;;11.90;10.67;;;;;;;15.76;100.00;97478.09;5049337;28;20583;-68
2021/08/16 03:33:58;;;;;;;12.03;11.03;;;;;;;15.90;100.00;97470.88;5050106;28;20208;-68
2021/08/16 03:36:26;;;;;;;12.03;11.00;;;;;;;15.90;100.00;97468.19;5055370;28;20202;-68
2021/08/16 03:38:54;;;;;;;14.20;11.47;;;;;;;15.98;100.00;97467.16;5047244;28;20203;-67
2021/08/16 03:41:22;;;;;;;13.20;11.27;;;;;;;15.96;100.00;97461.19;5056037;28;20214;-69
2021/08/16 03:43:50;;;;;;;13.00;11.70;;;;;;;16.02;100.00;97457.66;5052076;28;20508;-68
2021/08/16 03:46:19;;;;;;;13.67;12.47;;;;;;;16.07;100.00;97463.19;5051849;28;20245;-68
2021/08/16 03:48:47;;;;;;;12.70;11.40;;;;;;;16.07;100.00;97457.84;5051503;28;20261;-68
2021/08/16 03:51:15;;;;;;;13.13;11.97;;;;;;;16.14;100.00;97457.81;5051239;28;20211;-67
2021/08/16 03:53:43;;;;;;;12.87;11.77;;;;;;;16.21;100.00;97453.25;5050418;28;20836;-66
2021/08/16 03:56:11;;;;;;;12.30;11.20;;;;;;;16.25;100.00;97451.00;5056470;28;20226;-66
2021/08/16 03:58:41;;;;;;;12.10;11.03;;;;;;;16.30;100.00;97445.81;5070521;28;20212;-67
2021/08/16 04:01:09;;;;;;;14.10;11.93;;;;;;;16.38;100.00;97445.56;5066987;28;20206;-64
2021/08/16 04:03:41;;;;;;;14.67;12.13;;;;;;;16.34;100.00;97449.69;5067271;28;20204;-66
2021/08/16 04:06:09;;;;;;;12.77;11.77;;;;;;;16.43;100.00;97450.28;5052308;28;20258;-65
2021/08/16 04:08:39;;;;;;;12.97;11.80;;;;;;;16.45;100.00;97446.34;5054742;28;20211;-65
2021/08/16 04:11:08;;;;;;;15.03;11.37;;;;;;;16.49;100.00;97455.59;5054076;28;20208;-64
2021/08/16 04:13:36;;;;;;;12.97;11.33;;;;;;;16.56;100.00;97457.41;5050684;28;20238;-65
2021/08/16 04:16:04;;;;;;;11.57;10.53;;;;;;;16.56;100.00;97457.41;5057731;28;20214;-65
2021/08/16 04:18:32;;;;;;;11.20;10.40;;;;;;;16.66;100.00;97460.41;5052190;28;20555;-65
2021/08/16 04:21:02;;;;;;;13.67;11.67;;;;;;;16.75;100.00;97452.94;5058295;28;20675;-65
2021/08/16 04:23:30;;;;;;;12.60;11.33;;;;;;;16.75;100.00;97444.91;5054868;28;20555;-65
2021/08/16 04:25:58;;;;;;;12.37;11.33;;;;;;;16.84;100.00;97446.28;5054425;28;20710;-66
2021/08/16 04:28:26;;;;;;;14.87;12.03;;;;;;;16.95;100.00;97455.47;5050308;28;20237;-66
2021/08/16 04:30:54;;;;;;;12.80;11.80;;;;;;;16.91;100.00;97460.44;5050981;28;20231;-64
2021/08/16 04:33:24;;;;;;;12.73;11.63;;;;;;;16.93;100.00;97460.22;5049574;28;20282;-65
2021/08/16 04:35:53;;;;;;;11.33;10.37;;;;;;;16.96;100.00;97456.28;5058241;28;20300;-65
2021/08/16 04:38:23;;;;;;;12.30;11.20;;;;;;;16.96;100.00;97451.75;5052959;28;20207;-63
2021/08/16 04:40:51;;;;;;;12.17;11.07;;;;;;;17.17;100.00;97461.28;5052919;28;20227;-64
2021/08/16 04:43:20;;;;;;;12.50;10.47;;;;;;;17.17;100.00;97458.59;5051732;28;20211;-64
2021/08/16 04:45:48;;;;;;;14.33;12.30;;;;;;;17.22;100.00;97465.97;5045410;28;20224;-65
2021/08/16 04:48:16;;;;;;;13.07;11.67;;;;;;;17.26;100.00;97464.50;5050543;28;20218;-66
2021/08/16 04:50:44;;;;;;;13.70;11.17;;;;;;;17.26;100.00;97469.03;5047080;28;20233;-66
2021/08/16 04:53:12;;;;;;;12.50;11.40;;;;;;;17.25;100.00;97473.56;5053314;28;20592;-65
2021/08/16 04:55:42;;;;;;;13.27;11.33;;;;;;;17.45;100.00;97473.38;5050455;28;20206;-66
2021/08/16 04:58:10;;;;;;;28.80;12.60;;;;;;;17.33;100.00;97475.13;5053116;28;20839;-67
2021/08/16 05:00:38;;;;;;;13.60;11.77;;;;;;;17.39;100.00;97484.16;5048211;28;20224;-67
2021/08/16 05:03:06;;;;;;;12.97;11.83;;;;;;;17.58;100.00;97483.13;5051143;28;20208;-66
2021/08/16 05:05:35;;;;;;;12.83;11.77;;;;;;;17.58;100.00;97483.13;5050741;28;20231;-66
2021/08/16 05:08:03;;;;;;;12.97;11.80;;;;;;;17.67;100.00;97494.38;5049239;28;20604;-67
2021/08/16 05:10:32;;;;;;;13.20;11.87;;;;;;;17.74;100.00;97495.13;5051448;28;20235;-66
2021/08/16 05:13:02;;;;;;;12.27;11.03;;;;;;;17.89;100.00;97502.00;5049147;28;20211;-67
2021/08/16 05:15:30;;;;;;;12.87;11.70;;;;;;;18.02;100.00;97495.69;5047973;28;20195;-66
2021/08/16 05:18:02;;;;;;;13.00;11.33;;;;;;;18.08;100.00;97492.91;5052794;28;20683;-66
2021/08/16 05:20:31;;;;;;;12.53;11.50;;;;;;;18.08;100.00;97495.59;5050063;28;20226;-67
2021/08/16 05:22:59;;;;;;;11.73;10.63;;;;;;;18.23;100.00;97495.22;5044557;28;20766;-66
2021/08/16 05:25:27;;;;;;;10.93;9.97;;;;;;;18.33;100.00;97491.16;5002586;28;1239443;-66
2021/08/16 05:27:55;;;;;;;11.90;10.80;;;;;;;18.34;100.00;97501.69;5047641;28;20450;-67
2021/08/16 05:30:25;;;;;;;13.03;11.90;;;;;;;18.37;100.00;97503.06;5046087;28;20305;-65
2021/08/16 05:32:52;;;;;;;13.20;12.07;;;;;;;18.42;100.00;97508.59;5047146;28;20207;-67
2021/08/16 05:35:20;;;;;;;11.90;10.80;;;;;;;18.59;100.00;97506.13;5050171;28;20203;-67
2021/08/16 05:37:48;;;;;;;12.83;11.53;;;;;;;18.64;100.00;97521.50;5046999;28;20196;-68
2021/08/16 05:40:18;;;;;;;12.20;11.03;;;;;;;18.69;100.00;97526.22;5049414;28;20226;-68
2021/08/16 05:42:46;;;;;;;11.80;10.57;;;;;;;18.68;100.00;97528.06;5056789;28;20207;-70
2021/08/16 05:45:14;;;;;;;11.90;10.70;;;;;;;18.69;100.00;97532.38;5046450;28;20204;-69
2021/08/16 05:47:43;;;;;;;11.87;10.77;;;;;;;18.70;100.00;97538.56;5053580;28;20229;-69
2021/08/16 05:50:11;;;;;;;12.77;11.43;;;;;;;18.69;100.00;97537.75;5046148;28;20219;-71
2021/08/16 05:52:39;;;;;;;15.07;11.30;;;;;;;18.79;100.00;97547.94;5046309;28;20596;-68
2021/08/16 05:55:08;;;;;;;12.03;10.97;;;;;;;18.84;100.00;97540.00;5050987;28;20214;-70
2021/08/16 05:57:36;;;;;;;13.20;11.93;;;;;;;18.85;100.00;97544.34;5048467;28;20207;-66
2021/08/16 06:00:05;;;;;;;13.17;10.47;;;;;;;18.82;100.00;97546.69;5048535;28;20227;-71
2021/08/16 06:02:34;;;;;;;11.90;10.90;;;;;;;18.82;100.00;97544.78;5047956;28;20208;-72
2021/08/16 06:05:05;;;;;;;11.60;10.63;;;;;;;18.84;100.00;97558.81;5045000;28;20200;-72
2021/08/16 06:07:33;;;;;;;12.93;11.10;;;;;;;19.01;100.00;97566.25;5044673;28;20235;-73
2021/08/16 06:10:04;;;;;;;10.90;9.97;;;;;;;19.09;100.00;97560.56;5046200;28;20231;-73
2021/08/16 06:12:32;;;;;;;13.17;11.93;;;;;;;19.22;100.00;97565.72;5049525;28;20586;-70
2021/08/16 06:15:00;;;;;;;11.70;10.20;;;;;;;19.30;100.00;97559.19;5054577;28;20667;-70
2021/08/16 06:17:29;;;;;;;13.53;11.13;;;;;;;19.36;100.00;97568.22;5048785;28;20200;-70
2021/08/16 06:19:57;;;;;;;11.93;10.93;;;;;;;19.41;100.00;97571.00;5053241;28;20249;-69
2021/08/16 06:22:26;;;;;;;13.10;12.00;;;;;;;19.47;100.00;97569.25;5044511;28;20226;-71
2021/08/16 06:24:54;;;;;;;14.17;12.47;;;;;;;19.45;100.00;97574.88;5042788;28;20303;-69
2021/08/16 06:27:22;;;;;;;12.73;11.70;;;;;;;19.52;100.00;97572.88;5043865;28;20447;-71
2021/08/16 06:29:50;;;;;;;13.13;11.97;;;;;;;19.65;100.00;97577.22;5046655;28;20227;-70
2021/08/16 06:32:18;;;;;;;12.93;11.77;;;;;;;19.73;100.00;97591.38;5047532;28;20219;-69
2021/08/16 06:34:48;;;;;;;13.10;11.90;;;;;;;19.89;100.00;97581.78;5045206;28;20200;-70
2021/08/16 06:37:19;;;;;;;13.13;11.90;;;;;;;19.86;100.00;97585.75;5054457;28;20277;-70
2021/08/16 06:39:48;;;;;;;13.47;12.07;;;;;;;19.84;100.00;97579.78;5046942;28;20223;-71
2021/08/16 06:42:16;;;;;;;13.93;12.63;;;;;;;20.00;100.00;97583.66;5045771;28;20200;-70
2021/08/16 06:44:44;;;;;;;12.23;11.07;;;;;;;19.89;100.00;97579.91;5047470;28;20959;-70
2021/08/16 06:47:13;;;;;;;14.00;12.57;;;;;;;19.84;100.00;97595.91;5046134;28;20224;-70
2021/08/16 06:49:41;;;;;;;16.73;11.60;;;;;;;19.85;100.00;97592.16;5046211;28;20231;-70
2021/08/16 06:52:09;;;;;;;12.10;11.00;;;;;;;19.74;100.00;97598.38;5049086;28;20207;-71
2021/08/16 06:54:37;;;;;;;13.67;12.47;;;;;;;19.80;100.00;97597.44;5049611;28;20216;-70
2021/08/16 06:57:06;;;;;;;11.80;10.60;;;;;;;19.78;100.00;97597.69;5046462;28;20203;-70
2021/08/16 06:59:34;;;;;;;11.90;10.80;;;;;;;19.68;100.00;97608.19;5047871;28;20239;-70
2021/08/16 07:02:02;;;;;;;11.67;10.53;;;;;;;19.84;100.00;97617.41;5048920;28;20207;-71
2021/08/16 07:04:31;;;;;;;13.30;11.10;;;;;;;19.99;100.00;97613.50;5046436;28;20210;-71
2021/08/16 07:06:59;;;;;;;11.67;10.60;;;;;;;20.16;100.00;97619.78;5042182;28;20242;-72
2021/08/16 07:09:27;;;;;;;9.93;9.00;;;;;;;20.16;100.00;97616.28;5048397;28;20222;-69
2021/08/16 07:11:56;;;;;;;10.10;9.03;;;;;;;20.38;100.00;97635.34;5047333;28;20214;-70
2021/08/16 07:14:25;;;;;;;9.80;8.80;;;;;;;20.26;100.00;97632.66;5049698;28;20279;-70
2021/08/16 07:16:53;;;;;;;11.43;9.30;;;;;;;20.16;100.00;97629.75;5047799;28;20216;-69
2021/08/16 07:19:21;;;;;;;9.70;8.77;;;;;;;20.02;100.00;97637.22;5044273;28;20239;-68
2021/08/16 07:21:49;;;;;;;9.77;8.97;;;;;;;19.95;100.00;97651.63;5045900;28;20708;-69
2021/08/16 07:24:19;;;;;;;9.23;8.57;;;;;;;19.94;100.00;97647.28;5042810;28;20214;-71
2021/08/16 07:26:46;;;;;;;9.47;8.60;;;;;;;19.77;100.00;97648.97;5044067;28;20231;-70
2021/08/16 07:29:14;;;;;;;9.03;8.23;;;;;;;20.03;100.00;97644.25;5045091;28;20357;-70
2021/08/16 07:31:44;;;;;;;8.20;7.43;;;;;;;20.17;100.00;97642.94;5050914;28;20369;-70
2021/08/16 07:34:12;;;;;;;9.53;8.63;;;;;;;20.09;100.00;97646.81;5047467;28;20210;-69
2021/08/16 07:36:40;;;;;;;9.43;8.03;;;;;;;20.10;100.00;97642.25;5048349;28;20798;-69
2021/08/16 07:39:08;;;;;;;9.47;8.60;;;;;;;20.34;100.00;97634.16;5044808;28;20238;-69
2021/08/16 07:41:36;;;;;;;8.07;7.27;;;;;;;20.45;100.00;97649.47;5039767;28;20797;-69
2021/08/16 07:44:03;;;;;;;7.83;7.13;;;;;;;20.30;100.00;97658.03;5047448;28;20262;-69
2021/08/16 07:46:31;;;;;;;6.73;6.23;;;;;;;20.56;100.00;97642.44;5051363;28;20214;-71
2021/08/16 07:49:01;;;;;;;7.30;6.40;;;;;;;20.69;100.00;97649.44;5049304;28;20255;-71
2021/08/16 07:51:29;;;;;;;7.00;6.30;;;;;;;20.87;100.00;97635.00;5047979;28;20203;-69
2021/08/16 07:53:57;;;;;;;9.30;7.63;;;;;;;20.95;100.00;97629.22;5046889;28;20873;-69
2021/08/16 07:56:25;;;;;;;6.43;5.83;;;;;;;21.29;100.00;97633.88;5045524;28;20215;-69
2021/08/16 07:58:53;;;;;;;10.43;6.80;;;;;;;21.23;100.00;97632.97;5047609;28;20204;-69
2021/08/16 08:01:21;;;;;;;6.73;6.03;;;;;;;21.02;100.00;97641.75;5051421;28;20214;-68
2021/08/16 08:03:49;;;;;;;9.40;7.23;;;;;;;20.80;100.00;97645.06;5044880;28;20211;-70
2021/08/16 08:06:19;;;;;;;8.43;6.57;;;;;;;20.90;100.00;97645.31;5047272;28;20218;-71
2021/08/16 08:08:47;;;;;;;7.10;6.40;;;;;;;21.05;100.00;97642.09;5046283;28;20231;-70
2021/08/16 08:11:15;;;;;;;6.77;5.90;;;;;;;21.30;100.00;97648.97;5047732;28;20218;-70
2021/08/16 08:13:43;;;;;;;6.47;5.97;;;;;;;21.33;100.00;97645.78;5043592;28;20206;-71
2021/08/16 08:16:11;;;;;;;8.33;5.70;;;;;;;21.39;100.00;97649.41;5045634;28;20219;-70
2021/08/16 08:18:39;;;;;;;9.13;5.67;;;;;;;21.26;100.00;97653.22;5051890;28;20732;-71
2021/08/16 08:21:07;;;;;;;6.57;5.60;;;;;;;21.25;100.00;97649.72;5047014;28;20223;-68
2021/08/16 08:23:36;;;;;;;6.20;4.50;;;;;;;21.00;100.00;97660.81;5049657;28;20283;-69
2021/08/16 08:26:04;;;;;;;5.90;5.27;;;;;;;21.03;100.00;97671.13;5046502;28;20226;-69
2021/08/16 08:28:33;;;;;;;6.90;5.30;;;;;;;20.91;100.00;97675.72;5053734;28;21000;-68
2021/08/16 08:31:01;;;;;;;5.23;4.73;;;;;;;21.09;100.00;97677.44;5053946;28;20625;-70
2021/08/16 08:33:29;;;;;;;4.60;4.30;;;;;;;21.22;100.00;97690.63;5049062;28;20210;-68
2021/08/16 08:35:57;;;;;;;5.70;4.37;;;;;;;20.87;100.00;97693.41;5049043;28;20200;-68
2021/08/16 08:38:25;;;;;;;7.00;5.00;;;;;;;20.97;100.00;97685.53;5051793;28;20210;-69
2021/08/16 08:40:57;;;;;;;5.73;4.87;;;;;;;20.69;100.00;97681.75;5048416;28;20234;-70
2021/08/16 08:43:25;;;;;;;5.23;4.83;;;;;;;21.05;100.00;97687.88;5053640;28;20264;-69
2021/08/16 08:45:55;;;;;;;5.07;4.57;;;;;;;21.06;100.00;97680.59;5052073;28;20276;-68
2021/08/16 08:48:23;;;;;;;4.87;4.57;;;;;;;21.21;100.00;97674.69;5046070;28;20261;-68
2021/08/16 08:50:53;;;;;;;5.70;4.97;;;;;;;21.62;99.04;97685.41;5047949;28;20242;-68
2021/08/16 08:53:21;;;;;;;4.90;4.50;;;;;;;21.67;100.00;97685.50;5045947;28;20502;-68
2021/08/16 08:55:49;;;;;;;6.20;4.67;;;;;;;21.62;99.01;97686.19;5047537;28;20207;-71
2021/08/16 08:58:19;;;;;;;6.60;5.03;;;;;;;21.53;95.88;97688.47;5050642;28;20204;-68
2021/08/16 09:00:48;;;;;;;6.43;5.23;;;;;;;21.45;84.27;97685.38;5049315;28;20299;-69
2021/08/16 09:03:16;;;;;;;6.63;6.03;;;;;;;21.62;78.87;97690.78;5055807;28;20196;-68
2021/08/16 09:05:50;;;;;;;7.97;5.50;;;;;;;21.38;77.25;97685.50;5056287;28;20254;-68
2021/08/16 09:08:25;;;;;;;5.63;5.00;;;;;;;21.00;80.31;97701.22;5049361;28;20230;-69
2021/08/16 09:10:53;;;;;;;7.80;5.73;;;;;;;21.01;81.36;97697.47;5050256;28;20227;-68
2021/08/16 09:13:26;;;;;;;6.40;5.80;;;;;;;21.16;83.37;97679.97;5046818;28;20211;-68
2021/08/16 09:15:55;;;;;;;7.80;5.97;;;;;;;21.02;76.46;97685.63;5048789;28;20199;-68
2021/08/16 09:18:31;;;;;;;6.47;5.60;;;;;;;21.20;80.97;97678.44;5047674;28;20776;-69
2021/08/16 09:21:00;;;;;;;8.43;6.23;;;;;;;21.23;78.41;97673.41;5050445;28;20269;-68
2021/08/16 09:23:28;;;;;;;6.67;6.00;;;;;;;21.13;79.14;97670.50;5056035;28;20752;-69
2021/08/16 09:25:58;;;;;;;7.93;6.27;;;;;;;21.31;76.11;97674.88;5051941;28;20222;-68
2021/08/16 09:28:31;;;;;;;9.53;6.27;;;;;;;21.25;74.88;97665.91;5047268;28;20812;-69
2021/08/16 09:31:12;;;;;;;10.60;6.03;;;;;;;21.32;70.50;97684.59;5042950;28;20227;-70
2021/08/16 09:33:53;;;;;;;6.97;5.80;;;;;;;21.24;68.95;97688.50;5045776;28;20202;-70
2021/08/16 09:36:21;;;;;;;12.43;6.50;;;;;;;21.46;69.08;97682.41;5045528;28;20203;-69
2021/08/16 09:38:49;;;;;;;7.70;6.70;;;;;;;21.35;64.79;97694.88;5050254;28;20200;-70
2021/08/16 09:41:22;;;;;;;7.07;6.20;;;;;;;21.27;65.75;97695.28;5045485;28;20965;-69
2021/08/16 09:43:52;;;;;;;8.73;6.77;;;;;;;21.40;65.19;97681.53;5046706;28;20200;-70
2021/08/16 09:46:20;;;;;;;6.40;5.80;;;;;;;21.54;64.02;97684.72;5045926;28;20212;-69
2021/08/16 09:48:58;;;;;;;7.07;5.90;;;;;;;21.51;64.63;97679.00;5047228;28;20230;-69
2021/08/16 09:51:26;;;;;;;6.93;6.23;;;;;;;21.75;64.56;97668.09;5050661;28;20206;-69
2021/08/16 09:53:56;;;;;;;6.33;5.70;;;;;;;21.92;65.52;97682.41;5052984;28;20723;-69
2021/08/16 09:56:24;;;;;;;6.40;5.77;;;;;;;21.80;65.19;97678.97;5050300;28;20208;-69
2021/08/16 09:58:54;;;;;;;6.30;5.70;;;;;;;21.94;65.36;97674.06;5049070;28;20462;-69
2021/08/16 10:01:22;;;;;;;7.73;6.13;;;;;;;22.09;62.09;97673.47;5048307;28;20200;-69
2021/08/16 10:03:51;;;;;;;6.67;5.60;;;;;;;22.01;59.61;97673.91;5043784;28;20213;-70
2021/08/16 10:06:20;;;;;;;6.10;5.50;;;;;;;22.21;61.52;97679.63;5049152;28;20207;-69
2021/08/16 10:08:51;;;;;;;7.83;5.80;;;;;;;22.38;57.48;97678.75;5043243;28;20219;-69
2021/08/16 10:11:20;;;;;;;6.03;4.97;;;;;;;22.48;57.84;97675.41;5045221;28;20217;-69
2021/08/16 10:13:50;;;;;;;6.07;5.33;;;;;;;22.79;57.04;97681.22;5048007;28;20206;-69
2021/08/16 10:16:22;;;;;;;6.10;5.50;;;;;;;22.81;55.78;97663.69;5047557;28;20264;-69
2021/08/16 10:18:55;;;;;;;6.17;5.57;;;;;;;22.76;54.03;97669.03;5043725;28;20724;-69
2021/08/16 10:21:24;;;;;;;6.13;5.53;;;;;;;22.09;57.84;97666.22;5051199;28;20203;-69
2021/08/16 10:23:54;;;;;;;6.47;5.80;;;;;;;21.90;56.11;97667.53;5047153;28;20207;-71
2021/08/16 10:26:27;;;;;;;6.37;5.70;;;;;;;21.60;59.13;97665.94;5043849;28;20567;-69
2021/08/16 10:28:56;;;;;;;6.50;5.80;;;;;;;21.68;60.02;97670.97;5047680;28;20219;-69
2021/08/16 10:31:32;;;;;;;6.97;5.40;;;;;;;21.81;60.79;97650.94;5045064;28;20297;-69
2021/08/16 10:34:01;;;;;;;6.27;5.67;;;;;;;21.76;60.56;97664.31;5044481;28;20261;-69
2021/08/16 10:36:30;;;;;;;7.13;5.77;;;;;;;21.85;59.05;97649.41;5046218;28;20207;-70
2021/08/16 10:39:00;;;;;;;5.57;5.07;;;;;;;21.74;59.85;97653.81;5050289;28;20200;-69
2021/08/16 10:41:31;;;;;;;5.63;5.10;;;;;;;22.20;58.75;97650.16;5050902;28;20322;-71
2021/08/16 10:44:11;;;;;;;7.00;5.20;;;;;;;22.22;56.45;97642.63;5049700;28;20265;-69
2021/08/16 10:46:41;;;;;;;6.30;5.70;;;;;;;22.96;56.18;97654.94;5050087;28;20212;-70
2021/08/16 10:49:12;;;;;;;7.53;6.07;;;;;;;23.39;53.78;97644.34;5047113;28;20235;-70
2021/08/16 10:51:45;;;;;;;7.40;5.10;;;;;;;24.39;52.62;97647.50;5045175;28;20202;-69
2021/08/16 10:54:23;;;;;;;5.70;5.30;;;;;;;24.16;53.86;97648.75;5045387;28;20207;-69
2021/08/16 10:56:52;;;;;;;7.17;6.47;;;;;;;23.39;53.84;97643.50;5044858;28;20230;-69
2021/08/16 10:59:21;;;;;;;7.23;5.30;;;;;;;22.91;54.14;97656.75;5043387;28;20230;-69
2021/08/16 11:01:51;;;;;;;5.77;5.37;;;;;;;22.69;52.69;97647.59;5047778;28;20203;-70
2021/08/16 11:04:31;;;;;;;6.00;5.43;;;;;;;22.48;52.92;97660.03;5050192;28;20406;-69
2021/08/16 11:07:02;;;;;;;8.27;5.23;;;;;;;22.25;52.98;97650.22;5048066;28;20304;-70
2021/08/16 11:09:32;;;;;;;6.60;5.07;;;;;;;22.93;51.29;97660.03;5044310;28;20239;-71
2021/08/16 11:12:04;;;;;;;6.03;5.43;;;;;;;23.26;51.13;97642.84;5047970;28;20204;-70
2021/08/16 11:14:34;;;;;;;6.17;5.10;;;;;;;23.44;51.72;97637.34;5046042;28;20199;-69
2021/08/16 11:17:04;;;;;;;7.00;5.07;;;;;;;23.62;51.52;97647.75;5050263;28;20200;-70
2021/08/16 11:19:43;;;;;;;6.70;5.30;;;;;;;22.91;52.93;97648.66;5055163;28;20230;-68
2021/08/16 11:22:11;;;;;;;5.53;4.40;;;;;;;22.58;53.92;97642.34;5044615;28;20195;-70
2021/08/16 11:24:40;;;;;;;6.00;4.43;;;;;;;22.30;53.74;97641.41;5044464;28;20578;-68